createdAt,value
2023-05-04T00:01:25.835Z,12.03
2023-05-04T00:04:10.990Z,12.01
2023-05-04T00:06:55.791Z,12.03
2023-05-04T00:09:40.933Z,12.01
2023-05-04T00:12:25.871Z,12.01
2023-05-04T00:15:10.964Z,11.98
2023-05-04T00:17:56.036Z,12.00
2023-05-04T00:20:41.060Z,12.00
2023-05-04T00:23:26.298Z,11.97
2023-05-04T00:26:11.259Z,11.90
2023-05-04T00:28:56.214Z,11.87
2023-05-04T00:31:41.174Z,11.79
2023-05-04T00:34:26.169Z,11.81
2023-05-04T00:37:11.215Z,11.78
2023-05-04T00:39:56.186Z,11.76
2023-05-04T00:42:41.177Z,11.75
2023-05-04T00:45:26.164Z,11.74
2023-05-04T00:48:11.498Z,11.78
2023-05-04T00:50:56.198Z,11.73
2023-05-04T00:53:41.248Z,11.75
2023-05-04T00:56:26.229Z,11.75
2023-05-04T00:59:11.374Z,11.75
2023-05-04T01:01:56.466Z,11.75
2023-05-04T01:04:41.422Z,11.71
2023-05-04T01:07:26.392Z,11.71
2023-05-04T01:10:11.282Z,11.69
2023-05-04T01:12:56.440Z,11.65
2023-05-04T01:15:41.187Z,11.67
2023-05-04T01:18:26.170Z,11.56
2023-05-04T01:21:11.212Z,11.52
2023-05-04T01:23:56.148Z,11.50
2023-05-04T01:26:41.224Z,11.45
2023-05-04T01:29:26.209Z,11.42
2023-05-04T01:32:11.432Z,11.38
2023-05-04T01:34:56.347Z,11.36
2023-05-04T01:37:41.433Z,11.37
2023-05-04T01:40:26.311Z,11.34
2023-05-04T01:43:11.355Z,11.31
2023-05-04T01:45:56.481Z,11.30
2023-05-04T01:48:41.369Z,11.27
2023-05-04T01:51:26.579Z,11.22
2023-05-04T01:54:11.527Z,11.25
2023-05-04T01:56:56.546Z,11.24
2023-05-04T01:59:41.350Z,11.22
2023-05-04T02:02:26.511Z,11.24
2023-05-04T02:05:11.381Z,11.25
2023-05-04T02:07:56.233Z,11.26
2023-05-04T02:10:41.082Z,11.26
2023-05-04T02:13:25.997Z,11.25
2023-05-04T02:16:11.198Z,11.29
2023-05-04T02:18:56.097Z,11.26
2023-05-04T02:21:41.214Z,11.25
2023-05-04T02:24:26.096Z,11.24
2023-05-04T02:27:11.168Z,11.26
2023-05-04T02:29:56.202Z,11.29
2023-05-04T02:32:41.209Z,11.23
2023-05-04T02:35:26.214Z,11.24
2023-05-04T02:38:11.045Z,11.19
2023-05-04T02:40:56.020Z,11.16
2023-05-04T02:43:41.024Z,11.09
2023-05-04T02:46:26.064Z,11.05
2023-05-04T02:49:11.052Z,11.04
2023-05-04T02:51:56.232Z,11.03
2023-05-04T02:54:41.236Z,11.06
2023-05-04T02:57:26.036Z,11.03
2023-05-04T03:00:11.293Z,11.02
2023-05-04T03:02:56.315Z,10.90
2023-05-04T03:05:41.390Z,10.84
2023-05-04T03:08:26.469Z,10.79
2023-05-04T03:11:11.447Z,10.79
2023-05-04T03:13:56.325Z,10.77
2023-05-04T03:16:41.464Z,10.78
2023-05-04T03:19:26.523Z,10.80
2023-05-04T03:22:11.496Z,10.74
2023-05-04T03:24:56.587Z,10.73
2023-05-04T03:27:41.573Z,10.79
2023-05-04T03:30:26.822Z,10.80
2023-05-04T03:33:11.839Z,10.78
2023-05-04T03:35:56.861Z,10.81
2023-05-04T03:38:41.784Z,10.87
2023-05-04T03:41:26.748Z,10.89
2023-05-04T03:44:11.851Z,10.91
2023-05-04T03:46:56.952Z,10.91
2023-05-04T03:49:42.125Z,10.92
2023-05-04T03:52:27.121Z,10.92
2023-05-04T03:55:12.108Z,10.87
2023-05-04T03:57:57.097Z,10.86
2023-05-04T04:00:41.926Z,10.85
2023-05-04T04:03:27.197Z,10.85
2023-05-04T04:06:12.036Z,10.84
2023-05-04T04:08:57.159Z,10.83
2023-05-04T04:11:42.124Z,10.76
2023-05-04T04:14:27.312Z,10.75
2023-05-04T04:17:12.283Z,10.80
2023-05-04T04:19:57.324Z,10.87
2023-05-04T04:22:42.309Z,10.86
2023-05-04T04:25:27.253Z,10.79
2023-05-04T04:28:12.369Z,10.86
2023-05-04T04:30:57.266Z,10.95
2023-05-04T04:33:42.362Z,10.96
2023-05-04T04:36:27.405Z,10.95
2023-05-04T04:39:12.504Z,11.01
2023-05-04T04:41:57.476Z,11.04
2023-05-04T04:44:42.647Z,11.09
2023-05-04T04:47:27.782Z,11.09
2023-05-04T04:50:12.662Z,11.15
2023-05-04T04:52:58.878Z,11.15
2023-05-04T04:55:43.681Z,11.17
2023-05-04T04:58:28.912Z,11.20
2023-05-04T05:01:13.822Z,11.20
2023-05-04T05:03:58.994Z,11.24
2023-05-04T05:06:43.999Z,11.22
2023-05-04T05:09:28.869Z,11.28
2023-05-04T05:12:13.983Z,11.25
2023-05-04T05:14:58.978Z,11.19
2023-05-04T05:17:44.031Z,11.20
2023-05-04T05:20:28.956Z,11.16
2023-05-04T05:23:14.045Z,11.17
2023-05-04T05:25:59.850Z,11.20
2023-05-04T05:28:46.447Z,11.21
2023-05-04T05:31:31.811Z,11.24
2023-05-04T05:34:16.564Z,11.23
2023-05-04T05:37:01.518Z,14.61
2023-05-04T05:39:46.340Z,18.27
2023-05-04T05:42:31.369Z,20.72
2023-05-04T05:45:16.298Z,22.72
2023-05-04T05:48:01.266Z,24.32
2023-05-04T05:50:46.230Z,25.65
2023-05-04T05:53:31.086Z,26.75
2023-05-04T05:56:16.088Z,27.68
2023-05-04T05:59:00.826Z,28.39
2023-05-04T06:01:45.686Z,28.83
2023-05-04T06:04:30.576Z,29.59
2023-05-04T06:07:15.518Z,30.64
2023-05-04T06:10:00.385Z,31.20
2023-05-04T06:12:45.256Z,30.77
2023-05-04T06:15:30.230Z,30.42
2023-05-04T06:18:15.043Z,30.95
2023-05-04T06:20:59.946Z,31.60
2023-05-04T06:23:44.880Z,31.43
2023-05-04T06:26:29.729Z,31.38
2023-05-04T06:29:14.614Z,31.54
2023-05-04T06:31:59.592Z,32.30
2023-05-04T06:34:44.404Z,32.99
2023-05-04T06:37:29.354Z,31.83
2023-05-04T06:40:14.347Z,29.64
2023-05-04T06:42:59.328Z,29.23
2023-05-04T06:45:44.437Z,29.05
2023-05-04T06:48:29.282Z,29.25
2023-05-04T06:51:14.375Z,29.71
2023-05-04T06:53:59.351Z,30.68
2023-05-04T06:56:44.323Z,31.87
2023-05-04T06:59:29.308Z,32.33
2023-05-04T07:02:14.049Z,32.67
2023-05-04T07:04:58.919Z,32.75
2023-05-04T07:07:43.807Z,32.25
2023-05-04T07:10:29.013Z,32.59
2023-05-04T07:13:13.914Z,31.93
2023-05-04T07:15:59.044Z,32.46
2023-05-04T07:18:43.866Z,32.95
2023-05-04T07:21:29.735Z,32.68
2023-05-04T07:24:14.812Z,32.51
2023-05-04T07:26:59.816Z,32.21
2023-05-04T07:29:44.757Z,30.76
2023-05-04T07:32:29.620Z,28.65
2023-05-04T07:35:14.734Z,25.32
2023-05-04T07:37:59.608Z,23.63
2023-05-04T07:40:44.793Z,22.38
2023-05-04T07:43:29.534Z,21.83
2023-05-04T07:46:14.740Z,21.68
2023-05-04T07:48:59.878Z,21.58
2023-05-04T07:51:44.751Z,21.59
2023-05-04T07:54:29.683Z,20.48
2023-05-04T07:57:14.585Z,19.65
2023-05-04T07:59:59.637Z,19.02
2023-05-04T08:02:44.681Z,19.17
2023-05-04T08:05:29.598Z,19.38
2023-05-04T08:08:14.694Z,19.02
2023-05-04T08:11:11.970Z,19.12
2023-05-04T08:14:01.500Z,18.82
2023-05-04T08:16:46.489Z,18.62
2023-05-04T08:19:31.604Z,18.67
2023-05-04T08:22:16.527Z,18.31
2023-05-04T08:25:01.642Z,18.35
2023-05-04T08:27:46.779Z,18.33
2023-05-04T08:30:31.790Z,18.51
2023-05-04T08:33:16.927Z,18.48
2023-05-04T08:36:01.822Z,18.56
2023-05-04T08:38:46.765Z,18.57
2023-05-04T08:41:31.816Z,18.59
2023-05-04T08:44:16.849Z,18.25
2023-05-04T08:47:01.857Z,18.33
2023-05-04T08:49:46.788Z,18.62
2023-05-04T08:52:31.807Z,18.43
2023-05-04T08:55:16.764Z,18.45
2023-05-04T08:58:01.928Z,18.40
2023-05-04T09:00:46.873Z,18.57
2023-05-04T09:03:32.030Z,18.69
2023-05-04T09:06:16.847Z,19.10
2023-05-04T09:09:01.924Z,19.30
2023-05-04T09:11:47.024Z,19.53
2023-05-04T09:14:31.951Z,19.83
2023-05-04T09:17:17.012Z,20.01
2023-05-04T09:20:02.071Z,20.07
2023-05-04T09:22:47.100Z,20.18
2023-05-04T09:25:31.999Z,19.94
2023-05-04T09:28:17.055Z,19.88
2023-05-04T09:31:02.051Z,20.02
2023-05-04T09:33:47.005Z,19.89
2023-05-04T09:36:32.198Z,19.91
2023-05-04T09:39:17.261Z,19.81
2023-05-04T09:42:02.349Z,19.98
2023-05-04T09:44:47.271Z,20.21
2023-05-04T09:47:32.249Z,20.39
2023-05-04T09:50:19.839Z,20.10
2023-05-04T09:53:05.582Z,20.19
2023-05-04T09:55:50.788Z,20.13
2023-05-04T09:58:35.487Z,20.16
2023-05-04T10:01:20.608Z,19.82
2023-05-04T10:04:05.440Z,19.78
2023-05-04T10:06:50.508Z,19.52
2023-05-04T10:09:35.719Z,19.63
2023-05-04T10:12:20.706Z,19.50
2023-05-04T10:15:05.976Z,19.50
2023-05-04T10:17:51.203Z,19.73
2023-05-04T10:20:36.294Z,19.71
2023-05-04T10:23:23.671Z,19.77
2023-05-04T10:26:08.725Z,19.74
2023-05-04T10:28:53.780Z,20.02
2023-05-04T10:31:38.760Z,20.11
2023-05-04T10:34:23.745Z,20.28
2023-05-04T10:37:08.809Z,20.64
2023-05-04T10:39:53.937Z,20.66
2023-05-04T10:42:38.867Z,20.77
2023-05-04T10:45:23.931Z,20.69
2023-05-04T10:48:08.869Z,20.89
2023-05-04T10:50:53.874Z,20.96
2023-05-04T10:53:39.068Z,20.66
2023-05-04T10:56:24.052Z,20.47
2023-05-04T10:59:09.214Z,20.65
2023-05-04T11:01:54.128Z,20.61
2023-05-04T11:04:39.199Z,20.95
2023-05-04T11:07:24.188Z,21.22
2023-05-04T11:10:09.229Z,21.40
2023-05-04T11:12:54.257Z,21.73
2023-05-04T11:15:39.136Z,22.07
2023-05-04T11:18:24.343Z,22.11
2023-05-04T11:21:09.241Z,22.10
2023-05-04T11:23:54.289Z,22.17
2023-05-04T11:26:39.320Z,22.03
2023-05-04T11:29:24.386Z,21.90
2023-05-04T11:32:09.470Z,21.92
2023-05-04T11:34:54.527Z,21.97
2023-05-04T11:37:39.539Z,21.69
2023-05-04T11:40:24.499Z,21.94
2023-05-04T11:43:09.404Z,22.12
2023-05-04T11:45:54.560Z,21.76
2023-05-04T11:48:39.689Z,21.63
2023-05-04T11:51:24.769Z,21.51
2023-05-04T11:54:09.864Z,21.51
2023-05-04T11:56:54.927Z,21.36
2023-05-04T11:59:39.868Z,21.38
2023-05-04T12:02:25.035Z,21.48
2023-05-04T12:05:10.099Z,21.75
2023-05-04T12:07:55.107Z,21.79
2023-05-04T12:10:40.096Z,21.80
2023-05-04T12:13:25.155Z,21.68
2023-05-04T12:16:10.271Z,21.77
2023-05-04T12:18:55.137Z,21.99
2023-05-04T12:21:40.176Z,21.88
2023-05-04T12:24:25.175Z,21.80
2023-05-04T12:27:10.358Z,21.61
2023-05-04T12:29:55.261Z,21.62
2023-05-04T12:32:40.286Z,21.67
2023-05-04T12:35:25.113Z,21.85
2023-05-04T12:38:09.984Z,22.04
2023-05-04T12:40:55.052Z,22.01
2023-05-04T12:43:39.939Z,22.02
2023-05-04T12:46:25.034Z,22.08
2023-05-04T12:49:09.933Z,22.20
2023-05-04T12:51:54.975Z,22.46
2023-05-04T12:54:39.882Z,22.31
2023-05-04T12:57:24.896Z,22.48
2023-05-04T13:00:09.753Z,22.63
2023-05-04T13:02:54.796Z,22.85
2023-05-04T13:05:39.857Z,22.82
2023-05-04T13:08:24.824Z,22.65
2023-05-04T13:11:09.896Z,22.62
2023-05-04T13:13:54.761Z,22.62
2023-05-04T13:16:39.733Z,22.66
2023-05-04T13:19:24.834Z,22.50
2023-05-04T13:22:09.905Z,22.61
2023-05-04T13:24:54.818Z,22.37
2023-05-04T13:27:39.810Z,22.28
2023-05-04T13:30:24.787Z,22.16
2023-05-04T13:33:20.682Z,22.11
2023-05-04T13:36:12.522Z,22.12
2023-05-04T13:38:57.489Z,22.20
2023-05-04T13:41:42.367Z,22.31
2023-05-04T13:44:27.634Z,22.29
2023-05-04T13:47:12.577Z,22.08
2023-05-04T13:49:57.739Z,22.10
2023-05-04T13:52:42.783Z,22.20
2023-05-04T13:55:27.841Z,22.30
2023-05-04T13:58:12.836Z,22.57
2023-05-04T14:00:58.002Z,22.49
2023-05-04T14:03:42.840Z,22.47
2023-05-04T14:06:27.800Z,22.49
2023-05-04T14:09:13.083Z,22.60
2023-05-04T14:11:57.982Z,22.71
2023-05-04T14:14:43.010Z,22.66
2023-05-04T14:17:27.865Z,22.69
2023-05-04T14:20:12.876Z,22.47
2023-05-04T14:22:57.833Z,22.29
2023-05-04T14:25:42.936Z,22.16
2023-05-04T14:28:28.105Z,22.13
2023-05-04T14:31:13.062Z,22.08
2023-05-04T14:33:58.111Z,22.05
2023-05-04T14:36:43.030Z,21.90
2023-05-04T14:39:27.965Z,21.85
2023-05-04T14:42:12.801Z,21.75
2023-05-04T14:44:57.889Z,21.77
2023-05-04T14:47:42.926Z,21.65
2023-05-04T14:50:27.898Z,21.70
2023-05-04T14:53:12.572Z,21.80
2023-05-04T14:55:57.500Z,21.99
2023-05-04T14:58:42.530Z,22.11
2023-05-04T15:01:27.506Z,22.11
2023-05-04T15:04:12.568Z,22.33
2023-05-04T15:06:57.432Z,22.27
2023-05-04T15:09:42.479Z,22.40
2023-05-04T15:12:27.501Z,22.47
2023-05-04T15:15:12.435Z,22.18
2023-05-04T15:17:57.636Z,22.28
2023-05-04T15:20:42.589Z,22.20
2023-05-04T15:23:27.830Z,22.15
2023-05-04T15:26:12.744Z,22.07
2023-05-04T15:28:57.876Z,21.98
2023-05-04T15:31:42.881Z,21.69
2023-05-04T15:34:27.755Z,21.85
2023-05-04T15:37:12.766Z,22.04
2023-05-04T15:39:59.111Z,22.01
2023-05-04T15:42:46.446Z,21.98
2023-05-04T15:45:31.239Z,22.09
2023-05-04T15:48:16.261Z,22.15
2023-05-04T15:51:01.377Z,22.21
2023-05-04T15:53:46.339Z,22.22
2023-05-04T15:56:31.544Z,22.30
2023-05-04T15:59:16.543Z,22.38
2023-05-04T16:02:01.567Z,22.47
2023-05-04T16:04:46.587Z,22.63
2023-05-04T16:07:31.390Z,22.79
2023-05-04T16:10:16.477Z,22.91
2023-05-04T16:13:01.471Z,23.06
2023-05-04T16:15:46.530Z,23.13
2023-05-04T16:18:31.394Z,23.18
2023-05-04T16:21:16.385Z,23.20
2023-05-04T16:24:01.315Z,23.12
2023-05-04T16:26:46.318Z,22.97
2023-05-04T16:29:31.265Z,22.98
2023-05-04T16:32:16.649Z,22.93
2023-05-04T16:35:01.253Z,22.90
2023-05-04T16:37:46.129Z,22.80
2023-05-04T16:40:31.191Z,22.72
2023-05-04T16:43:15.950Z,22.72
2023-05-04T16:46:00.999Z,22.53
2023-05-04T16:48:45.847Z,22.44
2023-05-04T16:51:30.867Z,22.26
2023-05-04T16:54:15.735Z,22.15
2023-05-04T16:57:00.731Z,22.05
2023-05-04T16:59:45.675Z,21.92
2023-05-04T17:02:30.795Z,21.90
2023-05-04T17:05:15.798Z,21.81
2023-05-04T17:08:00.822Z,21.81
2023-05-04T17:10:45.886Z,21.77
2023-05-04T17:13:30.710Z,21.70
2023-05-04T17:16:15.863Z,21.60
2023-05-04T17:19:00.813Z,21.51
2023-05-04T17:21:45.672Z,21.46
2023-05-04T17:24:30.592Z,21.39
2023-05-04T17:27:15.579Z,21.28
2023-05-04T17:30:00.607Z,21.25
2023-05-04T17:32:45.476Z,21.19
2023-05-04T17:35:30.531Z,21.07
2023-05-04T17:38:15.516Z,20.90
2023-05-04T17:41:00.550Z,20.78
2023-05-04T17:43:45.497Z,20.67
2023-05-04T17:46:30.538Z,20.58
2023-05-04T17:49:15.553Z,20.49
2023-05-04T17:52:00.549Z,20.38
2023-05-04T17:54:45.850Z,20.29
2023-05-04T17:57:30.475Z,20.22
2023-05-04T18:00:15.541Z,20.08
2023-05-04T18:03:00.444Z,19.94
2023-05-04T18:05:45.333Z,19.89
2023-05-04T18:08:30.358Z,19.84
2023-05-04T18:11:15.264Z,19.80
2023-05-04T18:14:00.510Z,19.72
2023-05-04T18:16:45.380Z,19.61
2023-05-04T18:19:30.520Z,19.55
2023-05-04T18:22:15.555Z,19.51
2023-05-04T18:25:00.563Z,19.42
2023-05-04T18:27:45.438Z,19.34
2023-05-04T18:30:30.499Z,19.27
2023-05-04T18:33:15.461Z,19.18
2023-05-04T18:36:00.436Z,19.13
2023-05-04T18:38:45.441Z,19.08
2023-05-04T18:41:30.460Z,18.97
2023-05-04T18:44:15.618Z,18.88
2023-05-04T18:47:00.563Z,18.91
2023-05-04T18:49:45.607Z,19.01
2023-05-04T18:52:30.648Z,19.00
2023-05-04T18:55:15.711Z,18.84
2023-05-04T18:58:00.872Z,18.76
2023-05-04T19:00:45.768Z,18.87
2023-05-04T19:03:30.913Z,19.00
2023-05-04T19:06:15.786Z,18.95
2023-05-04T19:09:00.869Z,18.81
2023-05-04T19:11:45.892Z,18.64
2023-05-04T19:14:30.885Z,18.53
2023-05-04T19:17:15.973Z,18.40
2023-05-04T19:20:00.868Z,18.42
2023-05-04T19:22:45.841Z,18.40
2023-05-04T19:25:34.805Z,18.55
2023-05-04T19:28:20.300Z,19.02
2023-05-04T19:31:05.374Z,19.29
2023-05-04T19:33:50.238Z,19.40
2023-05-04T19:36:35.480Z,19.28
2023-05-04T19:39:20.371Z,19.15
2023-05-04T19:42:05.369Z,19.23
2023-05-04T19:44:50.322Z,19.34
2023-05-04T19:47:35.419Z,19.22
2023-05-04T19:50:20.337Z,18.98
2023-05-04T19:53:05.352Z,19.02
2023-05-04T19:55:50.460Z,19.06
2023-05-04T19:58:35.330Z,18.85
2023-05-04T20:01:20.440Z,19.04
2023-05-04T20:04:05.238Z,19.34
2023-05-04T20:06:50.169Z,19.59
2023-05-04T20:09:35.083Z,19.84
2023-05-04T20:12:20.033Z,19.89
2023-05-04T20:15:05.084Z,19.77
2023-05-04T20:17:50.071Z,19.29
2023-05-04T20:20:35.329Z,18.93
2023-05-04T20:23:19.981Z,18.94
2023-05-04T20:26:06.088Z,18.70
2023-05-04T20:28:51.039Z,18.43
2023-05-04T20:31:36.163Z,18.35
2023-05-04T20:34:21.213Z,18.41
2023-05-04T20:37:06.127Z,18.38
2023-05-04T20:39:51.128Z,18.44
2023-05-04T20:42:36.165Z,18.30
2023-05-04T20:45:21.208Z,18.07
2023-05-04T20:48:06.234Z,17.89
2023-05-04T20:50:54.945Z,17.83
2023-05-04T20:53:44.923Z,17.75
2023-05-04T20:56:30.116Z,17.69
2023-05-04T20:59:15.098Z,17.64
2023-05-04T21:02:00.174Z,17.58
2023-05-04T21:04:45.187Z,17.53
2023-05-04T21:07:30.261Z,17.44
2023-05-04T21:10:15.147Z,17.33
2023-05-04T21:13:00.254Z,17.24
2023-05-04T21:15:45.122Z,17.11
2023-05-04T21:18:30.136Z,17.06
2023-05-04T21:21:15.159Z,16.93
2023-05-04T21:24:00.165Z,16.90
2023-05-04T21:26:45.197Z,16.87
2023-05-04T21:29:30.272Z,16.84
2023-05-04T21:32:15.299Z,16.83
2023-05-04T21:35:00.278Z,16.76
2023-05-04T21:37:45.276Z,16.70
2023-05-04T21:40:30.521Z,16.67
2023-05-04T21:43:15.516Z,16.64
2023-05-04T21:46:00.629Z,16.54
2023-05-04T21:48:45.446Z,16.52
2023-05-04T21:51:30.469Z,16.48
2023-05-04T21:54:15.438Z,16.38
2023-05-04T21:57:00.719Z,16.38
2023-05-04T21:59:46.367Z,16.34
2023-05-04T22:02:32.210Z,16.31
2023-05-04T22:05:17.214Z,16.26
2023-05-04T22:08:02.073Z,16.22
2023-05-04T22:10:47.130Z,16.17
2023-05-04T22:13:32.017Z,16.15
2023-05-04T22:16:17.053Z,16.07
2023-05-04T22:19:02.090Z,16.05
2023-05-04T22:21:46.904Z,15.98
2023-05-04T22:24:31.977Z,15.98
2023-05-04T22:27:16.863Z,15.94
2023-05-04T22:30:01.999Z,15.86
2023-05-04T22:32:47.155Z,15.82
2023-05-04T22:35:32.136Z,15.74
2023-05-04T22:38:17.001Z,15.77
2023-05-04T22:41:02.047Z,15.79
2023-05-04T22:43:47.085Z,15.76
2023-05-04T22:46:32.062Z,15.72
2023-05-04T22:49:16.999Z,15.68
2023-05-04T22:52:01.880Z,15.67
2023-05-04T22:54:47.035Z,15.63
2023-05-04T22:57:31.827Z,15.61
2023-05-04T23:00:16.837Z,15.53
2023-05-04T23:03:01.709Z,15.53
2023-05-04T23:05:46.651Z,15.53
2023-05-04T23:08:31.711Z,15.50
2023-05-04T23:11:16.791Z,15.47
2023-05-04T23:14:01.966Z,15.45
2023-05-04T23:16:46.930Z,15.38
2023-05-04T23:19:32.033Z,15.33
2023-05-04T23:22:17.334Z,15.31
2023-05-04T23:25:02.125Z,15.30
2023-05-04T23:27:47.101Z,15.26
2023-05-04T23:30:32.063Z,15.23
2023-05-04T23:33:17.217Z,15.21
2023-05-04T23:36:02.149Z,15.21
2023-05-04T23:38:47.304Z,15.18
2023-05-04T23:41:32.200Z,15.14
2023-05-04T23:44:17.222Z,15.10
2023-05-04T23:47:02.105Z,15.08
2023-05-04T23:49:47.083Z,15.03
2023-05-04T23:52:32.110Z,14.96
2023-05-04T23:55:17.051Z,14.96
2023-05-04T23:58:02.160Z,14.94
